G. M. Dannevig — LINW — position and weather

sailwx.info

Track history (hours):
 
Tides and Currents Weather Stations Pressure Air Temp Water Temp Dewpoint Dewpoint Depression Visibility Wind Speed Wind Dir Waves Ship Positions

Oceanographic research ship G. M. Dannevig (Norway)

Detailed information on ship capabilities available from University of Delaware's Ocean Information Center.

Last reported at 2017-May-12 14:35 UTC. Time now 2017-May-26 07:18 UTC.
Position N 58°24' E 008°46'.
Warning: this ship's position is 13 days out of date.

Length 27 m; draft 0.35 m.

Type: Dredging. MMSI: 258513000.

Date/timePositionNaut miles runAvg speedWind from/ knotsBaromVisibWave heightAir tempDewpointWater temp
2017-May-12 14:35N 58°24' E 008°46'4 4.4
2017-May-12 13:40N 58°21' E 008°52'1 9.0
2017-May-12 13:30N 58°20' E 008°53'3 5.8
2017-May-12 13:00N 58°18' E 008°56'2 4.8
2017-May-12 12:30N 58°16' E 008°59'32 0.7
2017-May-10 15:24N 58°45' E 009°22'4 9.0
2017-May-10 15:00N 58°47' E 009°28'9 9.0
2017-May-10 14:00N 58°53' E 009°41'4 8.5
2017-May-10 13:30N 58°56' E 009°46'1 3.0
2017-May-10 13:00N 58°58' E 009°47'4 8.5
2017-May-10 12:30N 59°02' E 009°45'3 2.4
2017-May-10 11:16N 59°03' E 009°40'2 7.1
2017-May-10 11:00N 59°03' E 009°43'3 4.4
2017-May-10 10:25N 59°01' E 009°47'4 8.9
2017-May-10 09:59N 58°57' E 009°50'4 9.0
2017-May-10 09:30N 58°56' E 009°58'4 8.9
2017-May-10 09:00N 58°57' E 010°06'4 8.7
2017-May-10 08:30N 58°58' E 010°14'4 8.5
2017-May-10 08:00N 58°59' E 010°22'4 8.1
2017-May-10 07:30N 59°02' E 010°28'4 8.4
2017-May-10 07:00N 59°05' E 010°32'3 6.1
2017-May-10 06:30N 59°08' E 010°35'4 7.0
2017-May-10 06:00N 59°11' E 010°32'2 3.1
2017-May-10 05:30N 59°13' E 010°32'0 0.0
2017-May-10 05:00N 59°13' E 010°32'0 0.0
2017-May-10 04:30N 59°13' E 010°32'0 0.0
2017-May-10 04:00N 59°13' E 010°32'0 0.0
2017-May-10 03:30N 59°13' E 010°32'0 0.0
2017-May-10 03:00N 59°13' E 010°32'0 0.0
2017-May-10 02:30N 59°13' E 010°32'0 0.0
2017-May-10 02:00N 59°13' E 010°32'0 0.0
2017-May-10 01:30N 59°13' E 010°32'0 0.0
2017-May-10 01:00N 59°13' E 010°32'0 0.0
2017-May-10 00:30N 59°13' E 010°32'0 0.0
2017-May-10 00:00N 59°13' E 010°32'0 0.0
2017-May-09 23:30N 59°13' E 010°32'0 0.0
2017-May-09 23:00N 59°13' E 010°32'0 0.0
2017-May-09 22:30N 59°13' E 010°32'0 0.0
2017-May-09 22:00N 59°13' E 010°32'0 0.0
2017-May-09 21:30N 59°13' E 010°32'0 0.0
2017-May-09 21:00N 59°13' E 010°32'0 0.0
2017-May-09 20:30N 59°13' E 010°32'0 0.0
2017-May-09 20:00N 59°13' E 010°32'0 0.0
2017-May-09 19:30N 59°13' E 010°32'0 0.0
2017-May-09 19:00N 59°13' E 010°32'0 0.0
2017-May-09 18:30N 59°13' E 010°32'0 0.0
2017-May-09 18:00N 59°13' E 010°32'0 0.0
2017-May-09 17:30N 59°13' E 010°32'0 0.0
2017-May-09 17:00N 59°13' E 010°32'0 0.0
2017-May-09 16:30N 59°13' E 010°32'1 1.1
2017-May-09 16:00N 59°13' E 010°32'3 6.7
2017-May-09 15:30N 59°17' E 010°33'5 9.1
2017-May-09 15:00N 59°21' E 010°33'5 9.3
2017-May-09 14:30N 59°26' E 010°31'5 5.5
2017-May-09 13:30N 59°31' E 010°32'5 9.1
2017-May-09 13:00N 59°35' E 010°38'2 3.1
2017-May-09 12:30N 59°33' E 010°38'4 8.8
2017-May-09 12:00N 59°29' E 010°37'4 8.7
2017-May-09 11:30N 59°25' E 010°35'2 4.5
2017-May-09 11:00N 59°22' E 010°36'4 7.3
2017-May-09 10:30N 59°19' E 010°37'4 8.2
2017-May-09 10:00N 59°15' E 010°39'4 8.4
2017-May-09 09:31N 59°11' E 010°41'0 0.4
2017-May-09 09:00N 59°11' E 010°41'3 6.2
2017-May-09 08:30N 59°09' E 010°46'3 6.0
2017-May-09 08:00N 59°06' E 010°48'3 6.9
2017-May-09 07:30N 59°03' E 010°46'1 1.6
2017-May-09 07:00N 59°02' E 010°46'4 7.4
2017-May-09 06:30N 59°01' E 010°53'5 9.3
2017-May-09 06:01N 59°01' E 011°02'1 1.4
2017-May-09 05:30N 59°01' E 011°02'0 0.0
2017-May-09 05:00N 59°01' E 011°02'0 0.0
2017-May-09 04:30N 59°01' E 011°02'0 0.0
2017-May-09 04:00N 59°01' E 011°02'0 0.0
2017-May-09 03:30N 59°01' E 011°02'0 0.0
2017-May-09 03:00N 59°01' E 011°02'0 0.0
2017-May-09 02:30N 59°01' E 011°02'0 0.0
2017-May-09 02:00N 59°01' E 011°02'0 0.0
2017-May-09 01:30N 59°01' E 011°02'0 0.0
2017-May-09 01:00N 59°01' E 011°02'0 0.0
2017-May-09 00:30N 59°01' E 011°02'0 0.0
2017-May-09 00:00N 59°01' E 011°02'0 0.0
2017-May-08 23:30N 59°01' E 011°02'0 0.0
2017-May-08 23:00N 59°01' E 011°02'0 0.0
2017-May-08 22:30N 59°01' E 011°02'0 0.0
2017-May-08 22:00N 59°01' E 011°02'0 0.0
2017-May-08 21:30N 59°01' E 011°02'0 0.0
2017-May-08 21:00N 59°01' E 011°02'0 0.0
2017-May-08 20:30N 59°01' E 011°02'0 0.0
2017-May-08 20:00N 59°01' E 011°02'0 0.0
2017-May-08 19:30N 59°01' E 011°02'0 0.0
2017-May-08 19:00N 59°01' E 011°02'0 0.0
2017-May-08 18:30N 59°01' E 011°02'0 0.0
2017-May-08 18:00N 59°01' E 011°02'0 0.0
2017-May-08 17:30N 59°01' E 011°02'0 0.0
2017-May-08 17:00N 59°01' E 011°02'0 0.0
2017-May-08 16:30N 59°01' E 011°02'0 0.0
2017-May-08 16:00N 59°01' E 011°02'0 0.0
2017-May-08 15:30N 59°01' E 011°02'0 0.0
2017-May-08 15:00N 59°01' E 011°02'1 1.0
2017-May-08 14:30N 59°01' E 011°02'1 0.5
2017-May-08 13:30N 59°01' E 011°02'0 0.0
2017-May-08 13:00N 59°01' E 011°02'0 0.0
2017-May-08 12:30N 59°01' E 011°02'0 0.0
2017-May-08 12:00N 59°01' E 011°02'0 0.0
2017-May-08 11:30N 59°01' E 011°02'0 0.0
2017-May-08 11:00N 59°01' E 011°02'0 0.0
2017-May-08 10:30N 59°01' E 011°02'0 0.0
2017-May-08 10:00N 59°01' E 011°02'0 0.0
2017-May-08 09:30N 59°01' E 011°02'0 0.0
2017-May-08 09:00N 59°01' E 011°02'0 0.0
2017-May-08 08:30N 59°01' E 011°02'0 0.0
2017-May-08 08:00N 59°01' E 011°02'0 0.0
2017-May-08 07:30N 59°01' E 011°02'0 0.0
2017-May-08 07:00N 59°01' E 011°02'0 0.0
2017-May-08 06:30N 59°01' E 011°02'0 0.0
2017-May-08 06:00N 59°01' E 011°02'0 0.0
2017-May-08 05:30N 59°01' E 011°02'0 0.0
2017-May-08 05:00N 59°01' E 011°02'0 0.0
2017-May-08 04:30N 59°01' E 011°02'0 0.0
2017-May-08 04:00N 59°01' E 011°02'0 0.0
2017-May-08 03:30N 59°01' E 011°02'0 0.0
2017-May-08 03:00N 59°01' E 011°02'0 0.0
2017-May-08 02:30N 59°01' E 011°02'0 0.0
2017-May-08 02:00N 59°01' E 011°02'0 0.0
2017-May-08 01:30N 59°01' E 011°02'0 0.0
2017-May-08 01:00N 59°01' E 011°02'0 0.0
2017-May-08 00:30N 59°01' E 011°02'0 0.0
2017-May-08 00:00N 59°01' E 011°02'0 0.0
2017-May-07 23:30N 59°01' E 011°02'0 0.0
2017-May-07 23:00N 59°01' E 011°02'0 0.0
2017-May-07 22:30N 59°01' E 011°02'0 0.0
2017-May-07 22:00N 59°01' E 011°02'0 0.0
2017-May-07 21:30N 59°01' E 011°02'0 0.0
2017-May-07 21:00N 59°01' E 011°02'0 0.0
2017-May-07 20:30N 59°01' E 011°02'0 0.0
2017-May-07 20:00N 59°01' E 011°02'0 0.0
2017-May-07 19:30N 59°01' E 011°02'0 0.0
2017-May-07 19:00N 59°01' E 011°02'0 0.0
2017-May-07 18:30N 59°01' E 011°02'0 0.0
2017-May-07 18:00N 59°01' E 011°02'0 0.0
2017-May-07 17:30N 59°01' E 011°02'0 0.0
2017-May-07 17:00N 59°01' E 011°02'0 0.0
2017-May-07 16:30N 59°01' E 011°02'0 0.0
2017-May-07 16:00N 59°01' E 011°02'0 0.0
2017-May-07 15:30N 59°01' E 011°02'0 0.0
2017-May-07 15:00N 59°01' E 011°02'0 0.0
2017-May-07 14:30N 59°01' E 011°02'0 0.0
2017-May-07 13:30N 59°01' E 011°02'0 0.0
2017-May-07 13:00N 59°01' E 011°02'0 0.0
2017-May-07 12:30N 59°01' E 011°02'0 0.0
2017-May-07 12:00N 59°01' E 011°02'0 0.0
2017-May-07 11:30N 59°01' E 011°02'0 0.0
2017-May-07 11:00N 59°01' E 011°02'0 0.0
2017-May-07 10:30N 59°01' E 011°02'0 0.0
2017-May-07 10:00N 59°01' E 011°02'0 0.0
2017-May-07 09:30N 59°01' E 011°02'0 0.0
2017-May-07 09:00N 59°01' E 011°02'0 0.0
2017-May-07 08:30N 59°01' E 011°02'0 0.0
2017-May-07 08:00N 59°01' E 011°02'0 0.0
2017-May-07 07:30N 59°01' E 011°02'0 0.0
2017-May-07 07:00N 59°01' E 011°02'0 0.0
2017-May-07 06:30N 59°01' E 011°02'0 0.0
2017-May-07 06:00N 59°01' E 011°02'0 0.0
2017-May-07 05:30N 59°01' E 011°02'0 0.0
2017-May-07 05:00N 59°01' E 011°02'0 0.0
2017-May-07 04:30N 59°01' E 011°02'0 0.0
2017-May-07 04:00N 59°01' E 011°02'0 0.0
2017-May-07 03:30N 59°01' E 011°02'0 0.0
2017-May-07 03:00N 59°01' E 011°02'0 0.0
2017-May-07 02:30N 59°01' E 011°02'0 0.0
2017-May-07 02:00N 59°01' E 011°02'0 0.0
2017-May-07 01:30N 59°01' E 011°02'0 0.0
2017-May-07 01:00N 59°01' E 011°02'0 0.0
2017-May-07 00:30N 59°01' E 011°02'0 0.0
2017-May-07 00:00N 59°01' E 011°02'0 0.0
2017-May-06 23:30N 59°01' E 011°02'0 0.0
2017-May-06 23:00N 59°01' E 011°02'0 0.0
2017-May-06 22:30N 59°01' E 011°02'0 0.0
2017-May-06 22:00N 59°01' E 011°02'0 0.0
2017-May-06 21:30N 59°01' E 011°02'0 0.0
2017-May-06 21:00N 59°01' E 011°02'0 0.0
2017-May-06 20:30N 59°01' E 011°02'0 0.0
2017-May-06 20:00N 59°01' E 011°02'0 0.0
2017-May-06 19:30N 59°01' E 011°02'0 0.0
2017-May-06 19:00N 59°01' E 011°02'0 0.0
2017-May-06 18:30N 59°01' E 011°02'0 0.0
2017-May-06 18:00N 59°01' E 011°02'0 0.0
2017-May-06 17:30N 59°01' E 011°02'0 0.0
2017-May-06 17:00N 59°01' E 011°02'0 0.0
2017-May-06 16:30N 59°01' E 011°02'0 0.0
2017-May-06 16:00N 59°01' E 011°02'0 0.0
2017-May-06 15:30N 59°01' E 011°02'0 0.0
2017-May-06 15:00N 59°01' E 011°02'0 0.0
2017-May-06 14:30N 59°01' E 011°02'0 0.0
2017-May-06 13:30N 59°01' E 011°02'0 0.0
2017-May-06 13:00N 59°01' E 011°02'0 0.0
2017-May-06 12:30N 59°01' E 011°02'0 0.0
2017-May-06 12:00N 59°01' E 011°02'0 0.0
2017-May-06 11:30N 59°01' E 011°02'0 0.0
2017-May-06 11:00N 59°01' E 011°02'0 0.0
2017-May-06 10:30N 59°01' E 011°02'0 0.0
2017-May-06 10:00N 59°01' E 011°02'0 0.0
2017-May-06 09:30N 59°01' E 011°02'0 0.0
2017-May-06 09:00N 59°01' E 011°02'0 0.0
2017-May-06 08:30N 59°01' E 011°02'0 0.0
2017-May-06 08:00N 59°01' E 011°02'0 0.0
2017-May-06 07:30N 59°01' E 011°02'0 0.0
2017-May-06 07:00N 59°01' E 011°02'0 0.0
2017-May-06 06:30N 59°01' E 011°02'0 0.0
2017-May-06 06:00N 59°01' E 011°02'0 0.0
2017-May-06 05:30N 59°01' E 011°02'0 0.0
2017-May-06 05:00N 59°01' E 011°02'0 0.0
2017-May-06 04:30N 59°01' E 011°02'0 0.0
2017-May-06 04:00N 59°01' E 011°02'0 0.0
2017-May-06 03:30N 59°01' E 011°02'0 0.0
2017-May-06 03:00N 59°01' E 011°02'0 0.0
2017-May-06 02:30N 59°01' E 011°02'0 0.0
2017-May-06 02:00N 59°01' E 011°02'0 0.0
2017-May-06 01:30N 59°01' E 011°02'0 0.0
2017-May-06 01:00N 59°01' E 011°02'0 0.0
2017-May-06 00:30N 59°01' E 011°02'0 0.0
2017-May-06 00:00N 59°01' E 011°02'0 0.0
2017-May-05 23:30N 59°01' E 011°02'0 0.0
2017-May-05 23:00N 59°01' E 011°02'0 0.0
2017-May-05 22:30N 59°01' E 011°02'0 0.0
2017-May-05 22:00N 59°01' E 011°02'0 0.0
2017-May-05 21:30N 59°01' E 011°02'0 0.0
2017-May-05 21:00N 59°01' E 011°02'0 0.0
2017-May-05 20:30N 59°01' E 011°02'0 0.0
2017-May-05 20:00N 59°01' E 011°02'0 0.0
2017-May-05 19:30N 59°01' E 011°02'0 0.0
2017-May-05 19:00N 59°01' E 011°02'0 0.0
2017-May-05 18:30N 59°01' E 011°02'0 0.0
2017-May-05 18:00N 59°01' E 011°02'0 0.0
2017-May-05 17:30N 59°01' E 011°02'0 0.0
2017-May-05 17:00N 59°01' E 011°02'0 0.0
2017-May-05 16:30N 59°01' E 011°02'0 0.0
2017-May-05 16:00N 59°01' E 011°02'0 0.0
2017-May-05 15:30N 59°01' E 011°02'0 0.0
2017-May-05 15:00N 59°01' E 011°02'0 0.0
2017-May-05 14:00N 59°01' E 011°02'0 0.0
2017-May-05 13:30N 59°01' E 011°02'0 0.0
2017-May-05 13:00N 59°01' E 011°02'0 0.0
2017-May-05 12:30N 59°01' E 011°02'2 4.4
2017-May-05 12:00N 59°02' E 010°58'1 1.8
2017-May-05 11:30N 59°03' E 010°58'1 1.3
2017-May-05 11:00N 59°03' E 010°59'1 2.4
2017-May-05 10:30N 59°04' E 010°58'0 0.4
2017-May-05 10:00N 59°04' E 010°58'0 0.0
2017-May-05 09:30N 59°04' E 010°58'0 0.0
2017-May-05 09:00N 59°04' E 010°58'0 0.0
2017-May-05 08:30N 59°04' E 010°58'0 0.0
2017-May-05 08:00N 59°04' E 010°58'0 0.0
2017-May-05 07:30N 59°04' E 010°58'0 0.0
2017-May-05 07:00N 59°04' E 010°58'0 0.0
2017-May-05 06:30N 59°04' E 010°58'0 0.0
2017-May-05 06:00N 59°04' E 010°58'0 0.0
2017-May-05 05:30N 59°04' E 010°58'0 0.0
2017-May-05 05:00N 59°04' E 010°58'0 0.0
2017-May-05 04:30N 59°04' E 010°58'0 0.0
2017-May-05 04:00N 59°04' E 010°58'0 0.0
2017-May-05 03:30N 59°04' E 010°58'0 0.0
2017-May-05 03:00N 59°04' E 010°58'0 0.0
2017-May-05 02:30N 59°04' E 010°58'0 0.0
2017-May-05 02:00N 59°04' E 010°58'0 0.0
2017-May-05 01:30N 59°04' E 010°58'0 0.0
2017-May-05 01:00N 59°04' E 010°58'0 0.0
2017-May-05 00:30N 59°04' E 010°58'0 0.0
2017-May-05 00:00N 59°04' E 010°58'0 0.0
2017-May-04 23:30N 59°04' E 010°58'0 0.0
2017-May-04 23:00N 59°04' E 010°58'0 0.0
2017-May-04 22:30N 59°04' E 010°58'0 0.0
2017-May-04 22:00N 59°04' E 010°58'0 0.0
2017-May-04 21:30N 59°04' E 010°58'0 0.0
2017-May-04 21:00N 59°04' E 010°58'0 0.0
2017-May-04 20:30N 59°04' E 010°58'0 0.0
2017-May-04 20:00N 59°04' E 010°58'0 0.0
2017-May-04 19:30N 59°04' E 010°58'0 0.0
2017-May-04 19:00N 59°04' E 010°58'0 0.0
2017-May-04 18:30N 59°04' E 010°58'0 0.0
2017-May-04 18:00N 59°04' E 010°58'0 0.0
2017-May-04 17:30N 59°04' E 010°58'0 0.0
2017-May-04 17:00N 59°04' E 010°58'0 0.0
2017-May-04 16:30N 59°04' E 010°58'0 0.0
2017-May-04 16:00N 59°04' E 010°58'1 2.5
2017-May-04 15:30N 59°02' E 010°58'4 7.2
2017-May-04 15:00N 59°02' E 010°51'4 3.9
2017-May-04 14:00N 59°06' E 010°48'4 7.3
2017-May-04 13:30N 59°07' E 010°41'4 7.8
2017-May-04 13:00N 59°07' E 010°34'3 6.9
2017-May-04 12:30N 59°08' E 010°28'1 1.3
2017-May-04 12:00N 59°09' E 010°28'1 1.3
2017-May-04 11:30N 59°09' E 010°29'2 3.7
2017-May-04 11:00N 59°09' E 010°32'3 6.5
2017-May-04 10:30N 59°12' E 010°32'1 1.7
2017-May-04 10:00N 59°13' E 010°32'0 0.0
2017-May-04 09:30N 59°13' E 010°32'0 0.0
2017-May-04 09:00N 59°13' E 010°32'0 0.0
2017-May-04 08:30N 59°13' E 010°32'0 0.0
2017-May-04 08:00N 59°13' E 010°32'0 0.0
2017-May-04 07:30N 59°13' E 010°32'0 0.0
2017-May-04 07:00N 59°13' E 010°32'0 0.0
2017-May-04 06:30N 59°13' E 010°32'0 0.0
2017-May-04 06:00N 59°13' E 010°32'0 0.0
2017-May-04 05:30N 59°13' E 010°32'0 0.0
2017-May-04 05:00N 59°13' E 010°32'0 0.0
2017-May-04 04:30N 59°13' E 010°32'0 0.0
2017-May-04 04:00N 59°13' E 010°32'0 0.0
2017-May-04 03:30N 59°13' E 010°32'0 0.0
2017-May-04 03:00N 59°13' E 010°32'0 0.0
2017-May-04 02:30N 59°13' E 010°32'0 0.0
2017-May-04 02:00N 59°13' E 010°32'0 0.0
2017-May-04 01:30N 59°13' E 010°32'0 0.0
2017-May-04 01:00N 59°13' E 010°32'0 0.0
2017-May-04 00:30N 59°13' E 010°32'0 0.0
2017-May-04 00:00N 59°13' E 010°32'0 0.0
2017-May-03 23:30N 59°13' E 010°32'0 0.0
2017-May-03 23:00N 59°13' E 010°32'0 0.0
2017-May-03 22:30N 59°13' E 010°32'0 0.0
2017-May-03 22:00N 59°13' E 010°32'0 0.0
2017-May-03 21:30N 59°13' E 010°32'0 0.0
2017-May-03 21:00N 59°13' E 010°32'0 0.0
2017-May-03 20:30N 59°13' E 010°32'0 0.0
2017-May-03 20:00N 59°13' E 010°32'0 0.0
2017-May-03 19:30N 59°13' E 010°32'0 0.0
2017-May-03 19:00N 59°13' E 010°32'0 0.0
2017-May-03 18:30N 59°13' E 010°32'0 0.0
2017-May-03 18:00N 59°13' E 010°32'0 0.0
2017-May-03 17:30N 59°13' E 010°32'0 0.0
2017-May-03 17:00N 59°13' E 010°32'0 0.0
2017-May-03 16:30N 59°13' E 010°32'0 0.0
2017-May-03 16:00N 59°13' E 010°32'0 0.0
2017-May-03 15:30N 59°13' E 010°32'0 0.0
2017-May-03 15:00N 59°13' E 010°32'0 0.0
2017-May-03 14:00N 59°13' E 010°32'0 0.0
2017-May-03 13:30N 59°13' E 010°32'0 0.0
2017-May-03 13:00N 59°13' E 010°32'0 0.0
2017-May-03 12:30N 59°13' E 010°32'0 0.0
2017-May-03 12:00N 59°13' E 010°32'0 0.0
2017-May-03 11:30N 59°13' E 010°32'0 0.0
2017-May-03 11:00N 59°13' E 010°32'0 0.0
2017-May-03 10:30N 59°13' E 010°32'0 0.0
2017-May-03 10:00N 59°13' E 010°32'0 0.0
2017-May-03 09:30N 59°13' E 010°32'0 0.0
2017-May-03 09:00N 59°13' E 010°32'0 0.0
2017-May-03 08:30N 59°13' E 010°32'0 0.0
2017-May-03 08:00N 59°13' E 010°32'0 0.0
2017-May-03 07:30N 59°13' E 010°32'0 0.0
2017-May-03 07:00N 59°13' E 010°32'0 0.0
2017-May-03 06:30N 59°13' E 010°32'0 0.0
2017-May-03 06:00N 59°13' E 010°32'0 0.0
2017-May-03 05:30N 59°13' E 010°32'0 0.0
2017-May-03 05:00N 59°13' E 010°32'0 0.0
2017-May-03 04:30N 59°13' E 010°32'0 0.0
2017-May-03 04:00N 59°13' E 010°32'0 0.0
2017-May-03 03:30N 59°13' E 010°32'0 0.0
2017-May-03 03:00N 59°13' E 010°32'0 0.0
2017-May-03 02:30N 59°13' E 010°32'0 0.0
2017-May-03 02:00N 59°13' E 010°32'0 0.0
2017-May-03 01:30N 59°13' E 010°32'0 0.0
2017-May-03 01:00N 59°13' E 010°32'0 0.0
2017-May-03 00:30N 59°13' E 010°32'0 0.0
2017-May-03 00:00N 59°13' E 010°32'0 0.0
2017-May-02 23:30N 59°13' E 010°32'0 0.0
2017-May-02 23:00N 59°13' E 010°32'0 0.0
2017-May-02 22:30N 59°13' E 010°32'0 0.0
2017-May-02 22:00N 59°13' E 010°32'0 0.0
2017-May-02 21:30N 59°13' E 010°32'0 0.0
2017-May-02 21:00N 59°13' E 010°32'0 0.0
2017-May-02 20:30N 59°13' E 010°32'0 0.0
2017-May-02 20:00N 59°13' E 010°32'0 0.0
2017-May-02 19:30N 59°13' E 010°32'0 0.0
2017-May-02 19:00N 59°13' E 010°32'0 0.0
2017-May-02 18:30N 59°13' E 010°32'0 0.0
2017-May-02 18:00N 59°13' E 010°32'0 0.0
2017-May-02 17:30N 59°13' E 010°32'0 0.0
2017-May-02 17:00N 59°13' E 010°32'0 0.0
2017-May-02 16:30N 59°13' E 010°32'0 0.0
2017-May-02 16:00N 59°13' E 010°32'0 0.0
2017-May-02 15:30N 59°13' E 010°32'0 0.0
2017-May-02 15:00N 59°13' E 010°32'  
Track history (hours):
 
Tides and Currents Weather Stations Pressure Air Temp Water Temp Dewpoint Dewpoint Depression Visibility Wind Speed Wind Dir Waves Ship Positions

Oceanographic research ship G. M. Dannevig (Norway)

Detailed information on ship capabilities available from University of Delaware's Ocean Information Center.

Last reported at 2017-May-12 14:35 UTC. Time now 2017-May-26 07:18 UTC.
Position N 58°24' E 008°46'.
Warning: this ship's position is 13 days out of date.

Length 27 m; draft 0.35 m.

Type: Dredging. MMSI: 258513000.

Date/timePositionNaut miles runAvg speedWind from/ knotsBaromVisibWave heightAir tempDewpointWater temp
2017-May-12 14:35N 58°24' E 008°46'4 4.4
2017-May-12 13:40N 58°21' E 008°52'1 9.0
2017-May-12 13:30N 58°20' E 008°53'3 5.8
2017-May-12 13:00N 58°18' E 008°56'2 4.8
2017-May-12 12:30N 58°16' E 008°59'32 0.7
2017-May-10 15:24N 58°45' E 009°22'4 9.0
2017-May-10 15:00N 58°47' E 009°28'9 9.0
2017-May-10 14:00N 58°53' E 009°41'4 8.5
2017-May-10 13:30N 58°56' E 009°46'1 3.0
2017-May-10 13:00N 58°58' E 009°47'4 8.5
2017-May-10 12:30N 59°02' E 009°45'3 2.4
2017-May-10 11:16N 59°03' E 009°40'2 7.1
2017-May-10 11:00N 59°03' E 009°43'3 4.4
2017-May-10 10:25N 59°01' E 009°47'4 8.9
2017-May-10 09:59N 58°57' E 009°50'4 9.0
2017-May-10 09:30N 58°56' E 009°58'4 8.9
2017-May-10 09:00N 58°57' E 010°06'4 8.7
2017-May-10 08:30N 58°58' E 010°14'4 8.5
2017-May-10 08:00N 58°59' E 010°22'4 8.1
2017-May-10 07:30N 59°02' E 010°28'4 8.4
2017-May-10 07:00N 59°05' E 010°32'3 6.1
2017-May-10 06:30N 59°08' E 010°35'4 7.0
2017-May-10 06:00N 59°11' E 010°32'2 3.1
2017-May-10 05:30N 59°13' E 010°32'0 0.0
2017-May-10 05:00N 59°13' E 010°32'0 0.0
2017-May-10 04:30N 59°13' E 010°32'0 0.0
2017-May-10 04:00N 59°13' E 010°32'0 0.0
2017-May-10 03:30N 59°13' E 010°32'0 0.0
2017-May-10 03:00N 59°13' E 010°32'0 0.0
2017-May-10 02:30N 59°13' E 010°32'0 0.0
2017-May-10 02:00N 59°13' E 010°32'0 0.0
2017-May-10 01:30N 59°13' E 010°32'0 0.0
2017-May-10 01:00N 59°13' E 010°32'0 0.0
2017-May-10 00:30N 59°13' E 010°32'0 0.0
2017-May-10 00:00N 59°13' E 010°32'0 0.0
2017-May-09 23:30N 59°13' E 010°32'0 0.0
2017-May-09 23:00N 59°13' E 010°32'0 0.0
2017-May-09 22:30N 59°13' E 010°32'0 0.0
2017-May-09 22:00N 59°13' E 010°32'0 0.0
2017-May-09 21:30N 59°13' E 010°32'0 0.0
2017-May-09 21:00N 59°13' E 010°32'0 0.0
2017-May-09 20:30N 59°13' E 010°32'0 0.0
2017-May-09 20:00N 59°13' E 010°32'0 0.0
2017-May-09 19:30N 59°13' E 010°32'0 0.0
2017-May-09 19:00N 59°13' E 010°32'0 0.0
2017-May-09 18:30N 59°13' E 010°32'0 0.0
2017-May-09 18:00N 59°13' E 010°32'0 0.0
2017-May-09 17:30N 59°13' E 010°32'0 0.0
2017-May-09 17:00N 59°13' E 010°32'0 0.0
2017-May-09 16:30N 59°13' E 010°32'1 1.1
2017-May-09 16:00N 59°13' E 010°32'3 6.7
2017-May-09 15:30N 59°17' E 010°33'5 9.1
2017-May-09 15:00N 59°21' E 010°33'5 9.3
2017-May-09 14:30N 59°26' E 010°31'5 5.5
2017-May-09 13:30N 59°31' E 010°32'5 9.1
2017-May-09 13:00N 59°35' E 010°38'2 3.1
2017-May-09 12:30N 59°33' E 010°38'4 8.8
2017-May-09 12:00N 59°29' E 010°37'4 8.7
2017-May-09 11:30N 59°25' E 010°35'2 4.5
2017-May-09 11:00N 59°22' E 010°36'4 7.3
2017-May-09 10:30N 59°19' E 010°37'4 8.2
2017-May-09 10:00N 59°15' E 010°39'4 8.4
2017-May-09 09:31N 59°11' E 010°41'0 0.4
2017-May-09 09:00N 59°11' E 010°41'3 6.2
2017-May-09 08:30N 59°09' E 010°46'3 6.0
2017-May-09 08:00N 59°06' E 010°48'3 6.9
2017-May-09 07:30N 59°03' E 010°46'1 1.6
2017-May-09 07:00N 59°02' E 010°46'4 7.4
2017-May-09 06:30N 59°01' E 010°53'5 9.3
2017-May-09 06:01N 59°01' E 011°02'1 1.4
2017-May-09 05:30N 59°01' E 011°02'0 0.0
2017-May-09 05:00N 59°01' E 011°02'0 0.0
2017-May-09 04:30N 59°01' E 011°02'0 0.0
2017-May-09 04:00N 59°01' E 011°02'0 0.0
2017-May-09 03:30N 59°01' E 011°02'0 0.0
2017-May-09 03:00N 59°01' E 011°02'0 0.0
2017-May-09 02:30N 59°01' E 011°02'0 0.0
2017-May-09 02:00N 59°01' E 011°02'0 0.0
2017-May-09 01:30N 59°01' E 011°02'0 0.0
2017-May-09 01:00N 59°01' E 011°02'0 0.0
2017-May-09 00:30N 59°01' E 011°02'0 0.0
2017-May-09 00:00N 59°01' E 011°02'0 0.0
2017-May-08 23:30N 59°01' E 011°02'0 0.0
2017-May-08 23:00N 59°01' E 011°02'0 0.0
2017-May-08 22:30N 59°01' E 011°02'0 0.0
2017-May-08 22:00N 59°01' E 011°02'0 0.0
2017-May-08 21:30N 59°01' E 011°02'0 0.0
2017-May-08 21:00N 59°01' E 011°02'0 0.0
2017-May-08 20:30N 59°01' E 011°02'0 0.0
2017-May-08 20:00N 59°01' E 011°02'0 0.0
2017-May-08 19:30N 59°01' E 011°02'0 0.0
2017-May-08 19:00N 59°01' E 011°02'0 0.0
2017-May-08 18:30N 59°01' E 011°02'0 0.0
2017-May-08 18:00N 59°01' E 011°02'0 0.0
2017-May-08 17:30N 59°01' E 011°02'0 0.0
2017-May-08 17:00N 59°01' E 011°02'0 0.0
2017-May-08 16:30N 59°01' E 011°02'0 0.0
2017-May-08 16:00N 59°01' E 011°02'0 0.0
2017-May-08 15:30N 59°01' E 011°02'0 0.0
2017-May-08 15:00N 59°01' E 011°02'1 1.0
2017-May-08 14:30N 59°01' E 011°02'1 0.5
2017-May-08 13:30N 59°01' E 011°02'0 0.0
2017-May-08 13:00N 59°01' E 011°02'0 0.0
2017-May-08 12:30N 59°01' E 011°02'0 0.0
2017-May-08 12:00N 59°01' E 011°02'0 0.0
2017-May-08 11:30N 59°01' E 011°02'0 0.0
2017-May-08 11:00N 59°01' E 011°02'0 0.0
2017-May-08 10:30N 59°01' E 011°02'0 0.0
2017-May-08 10:00N 59°01' E 011°02'0 0.0
2017-May-08 09:30N 59°01' E 011°02'0 0.0
2017-May-08 09:00N 59°01' E 011°02'0 0.0
2017-May-08 08:30N 59°01' E 011°02'0 0.0
2017-May-08 08:00N 59°01' E 011°02'0 0.0
2017-May-08 07:30N 59°01' E 011°02'0 0.0
2017-May-08 07:00N 59°01' E 011°02'0 0.0
2017-May-08 06:30N 59°01' E 011°02'0 0.0
2017-May-08 06:00N 59°01' E 011°02'0 0.0
2017-May-08 05:30N 59°01' E 011°02'0 0.0
2017-May-08 05:00N 59°01' E 011°02'0 0.0
2017-May-08 04:30N 59°01' E 011°02'0 0.0
2017-May-08 04:00N 59°01' E 011°02'0 0.0
2017-May-08 03:30N 59°01' E 011°02'0 0.0
2017-May-08 03:00N 59°01' E 011°02'0 0.0
2017-May-08 02:30N 59°01' E 011°02'0 0.0
2017-May-08 02:00N 59°01' E 011°02'0 0.0
2017-May-08 01:30N 59°01' E 011°02'0 0.0
2017-May-08 01:00N 59°01' E 011°02'0 0.0
2017-May-08 00:30N 59°01' E 011°02'0 0.0
2017-May-08 00:00N 59°01' E 011°02'0 0.0
2017-May-07 23:30N 59°01' E 011°02'0 0.0
2017-May-07 23:00N 59°01' E 011°02'0 0.0
2017-May-07 22:30N 59°01' E 011°02'0 0.0
2017-May-07 22:00N 59°01' E 011°02'0 0.0
2017-May-07 21:30N 59°01' E 011°02'0 0.0
2017-May-07 21:00N 59°01' E 011°02'0 0.0
2017-May-07 20:30N 59°01' E 011°02'0 0.0
2017-May-07 20:00N 59°01' E 011°02'0 0.0
2017-May-07 19:30N 59°01' E 011°02'0 0.0
2017-May-07 19:00N 59°01' E 011°02'0 0.0
2017-May-07 18:30N 59°01' E 011°02'0 0.0
2017-May-07 18:00N 59°01' E 011°02'0 0.0
2017-May-07 17:30N 59°01' E 011°02'0 0.0
2017-May-07 17:00N 59°01' E 011°02'0 0.0
2017-May-07 16:30N 59°01' E 011°02'0 0.0
2017-May-07 16:00N 59°01' E 011°02'0 0.0
2017-May-07 15:30N 59°01' E 011°02'0 0.0
2017-May-07 15:00N 59°01' E 011°02'0 0.0
2017-May-07 14:30N 59°01' E 011°02'0 0.0
2017-May-07 13:30N 59°01' E 011°02'0 0.0
2017-May-07 13:00N 59°01' E 011°02'0 0.0
2017-May-07 12:30N 59°01' E 011°02'0 0.0
2017-May-07 12:00N 59°01' E 011°02'0 0.0
2017-May-07 11:30N 59°01' E 011°02'0 0.0
2017-May-07 11:00N 59°01' E 011°02'0 0.0
2017-May-07 10:30N 59°01' E 011°02'0 0.0
2017-May-07 10:00N 59°01' E 011°02'0 0.0
2017-May-07 09:30N 59°01' E 011°02'0 0.0
2017-May-07 09:00N 59°01' E 011°02'0 0.0
2017-May-07 08:30N 59°01' E 011°02'0 0.0
2017-May-07 08:00N 59°01' E 011°02'0 0.0
2017-May-07 07:30N 59°01' E 011°02'0 0.0
2017-May-07 07:00N 59°01' E 011°02'0 0.0
2017-May-07 06:30N 59°01' E 011°02'0 0.0
2017-May-07 06:00N 59°01' E 011°02'0 0.0
2017-May-07 05:30N 59°01' E 011°02'0 0.0
2017-May-07 05:00N 59°01' E 011°02'0 0.0
2017-May-07 04:30N 59°01' E 011°02'0 0.0
2017-May-07 04:00N 59°01' E 011°02'0 0.0
2017-May-07 03:30N 59°01' E 011°02'0 0.0
2017-May-07 03:00N 59°01' E 011°02'0 0.0
2017-May-07 02:30N 59°01' E 011°02'0 0.0
2017-May-07 02:00N 59°01' E 011°02'0 0.0
2017-May-07 01:30N 59°01' E 011°02'0 0.0
2017-May-07 01:00N 59°01' E 011°02'0 0.0
2017-May-07 00:30N 59°01' E 011°02'0 0.0
2017-May-07 00:00N 59°01' E 011°02'0 0.0
2017-May-06 23:30N 59°01' E 011°02'0 0.0
2017-May-06 23:00N 59°01' E 011°02'0 0.0
2017-May-06 22:30N 59°01' E 011°02'0 0.0
2017-May-06 22:00N 59°01' E 011°02'0 0.0
2017-May-06 21:30N 59°01' E 011°02'0 0.0
2017-May-06 21:00N 59°01' E 011°02'0 0.0
2017-May-06 20:30N 59°01' E 011°02'0 0.0
2017-May-06 20:00N 59°01' E 011°02'0 0.0
2017-May-06 19:30N 59°01' E 011°02'0 0.0
2017-May-06 19:00N 59°01' E 011°02'0 0.0
2017-May-06 18:30N 59°01' E 011°02'0 0.0
2017-May-06 18:00N 59°01' E 011°02'0 0.0
2017-May-06 17:30N 59°01' E 011°02'0 0.0
2017-May-06 17:00N 59°01' E 011°02'0 0.0
2017-May-06 16:30N 59°01' E 011°02'0 0.0
2017-May-06 16:00N 59°01' E 011°02'0 0.0
2017-May-06 15:30N 59°01' E 011°02'0 0.0
2017-May-06 15:00N 59°01' E 011°02'0 0.0
2017-May-06 14:30N 59°01' E 011°02'0 0.0
2017-May-06 13:30N 59°01' E 011°02'0 0.0
2017-May-06 13:00N 59°01' E 011°02'0 0.0
2017-May-06 12:30N 59°01' E 011°02'0 0.0
2017-May-06 12:00N 59°01' E 011°02'0 0.0
2017-May-06 11:30N 59°01' E 011°02'0 0.0
2017-May-06 11:00N 59°01' E 011°02'0 0.0
2017-May-06 10:30N 59°01' E 011°02'0 0.0
2017-May-06 10:00N 59°01' E 011°02'0 0.0
2017-May-06 09:30N 59°01' E 011°02'0 0.0
2017-May-06 09:00N 59°01' E 011°02'0 0.0
2017-May-06 08:30N 59°01' E 011°02'0 0.0
2017-May-06 08:00N 59°01' E 011°02'0 0.0
2017-May-06 07:30N 59°01' E 011°02'0 0.0
2017-May-06 07:00N 59°01' E 011°02'0 0.0
2017-May-06 06:30N 59°01' E 011°02'0 0.0
2017-May-06 06:00N 59°01' E 011°02'0 0.0
2017-May-06 05:30N 59°01' E 011°02'0 0.0
2017-May-06 05:00N 59°01' E 011°02'0 0.0
2017-May-06 04:30N 59°01' E 011°02'0 0.0
2017-May-06 04:00N 59°01' E 011°02'0 0.0
2017-May-06 03:30N 59°01' E 011°02'0 0.0
2017-May-06 03:00N 59°01' E 011°02'0 0.0
2017-May-06 02:30N 59°01' E 011°02'0 0.0
2017-May-06 02:00N 59°01' E 011°02'0 0.0
2017-May-06 01:30N 59°01' E 011°02'0 0.0
2017-May-06 01:00N 59°01' E 011°02'0 0.0
2017-May-06 00:30N 59°01' E 011°02'0 0.0
2017-May-06 00:00N 59°01' E 011°02'0 0.0
2017-May-05 23:30N 59°01' E 011°02'0 0.0
2017-May-05 23:00N 59°01' E 011°02'0 0.0
2017-May-05 22:30N 59°01' E 011°02'0 0.0
2017-May-05 22:00N 59°01' E 011°02'0 0.0
2017-May-05 21:30N 59°01' E 011°02'0 0.0
2017-May-05 21:00N 59°01' E 011°02'0 0.0
2017-May-05 20:30N 59°01' E 011°02'0 0.0
2017-May-05 20:00N 59°01' E 011°02'0 0.0
2017-May-05 19:30N 59°01' E 011°02'0 0.0
2017-May-05 19:00N 59°01' E 011°02'0 0.0
2017-May-05 18:30N 59°01' E 011°02'0 0.0
2017-May-05 18:00N 59°01' E 011°02'0 0.0
2017-May-05 17:30N 59°01' E 011°02'0 0.0
2017-May-05 17:00N 59°01' E 011°02'0 0.0
2017-May-05 16:30N 59°01' E 011°02'0 0.0
2017-May-05 16:00N 59°01' E 011°02'0 0.0
2017-May-05 15:30N 59°01' E 011°02'0 0.0
2017-May-05 15:00N 59°01' E 011°02'0 0.0
2017-May-05 14:00N 59°01' E 011°02'0 0.0
2017-May-05 13:30N 59°01' E 011°02'0 0.0
2017-May-05 13:00N 59°01' E 011°02'0 0.0
2017-May-05 12:30N 59°01' E 011°02'2 4.4
2017-May-05 12:00N 59°02' E 010°58'1 1.8
2017-May-05 11:30N 59°03' E 010°58'1 1.3
2017-May-05 11:00N 59°03' E 010°59'1 2.4
2017-May-05 10:30N 59°04' E 010°58'0 0.4
2017-May-05 10:00N 59°04' E 010°58'0 0.0
2017-May-05 09:30N 59°04' E 010°58'0 0.0
2017-May-05 09:00N 59°04' E 010°58'0 0.0
2017-May-05 08:30N 59°04' E 010°58'0 0.0
2017-May-05 08:00N 59°04' E 010°58'0 0.0
2017-May-05 07:30N 59°04' E 010°58'0 0.0
2017-May-05 07:00N 59°04' E 010°58'0 0.0
2017-May-05 06:30N 59°04' E 010°58'0 0.0
2017-May-05 06:00N 59°04' E 010°58'0 0.0
2017-May-05 05:30N 59°04' E 010°58'0 0.0
2017-May-05 05:00N 59°04' E 010°58'0 0.0
2017-May-05 04:30N 59°04' E 010°58'0 0.0
2017-May-05 04:00N 59°04' E 010°58'0 0.0
2017-May-05 03:30N 59°04' E 010°58'0 0.0
2017-May-05 03:00N 59°04' E 010°58'0 0.0
2017-May-05 02:30N 59°04' E 010°58'0 0.0
2017-May-05 02:00N 59°04' E 010°58'0 0.0
2017-May-05 01:30N 59°04' E 010°58'0 0.0
2017-May-05 01:00N 59°04' E 010°58'0 0.0
2017-May-05 00:30N 59°04' E 010°58'0 0.0
2017-May-05 00:00N 59°04' E 010°58'0 0.0
2017-May-04 23:30N 59°04' E 010°58'0 0.0
2017-May-04 23:00N 59°04' E 010°58'0 0.0
2017-May-04 22:30N 59°04' E 010°58'0 0.0
2017-May-04 22:00N 59°04' E 010°58'0 0.0
2017-May-04 21:30N 59°04' E 010°58'0 0.0
2017-May-04 21:00N 59°04' E 010°58'0 0.0
2017-May-04 20:30N 59°04' E 010°58'0 0.0
2017-May-04 20:00N 59°04' E 010°58'0 0.0
2017-May-04 19:30N 59°04' E 010°58'0 0.0
2017-May-04 19:00N 59°04' E 010°58'0 0.0
2017-May-04 18:30N 59°04' E 010°58'0 0.0
2017-May-04 18:00N 59°04' E 010°58'0 0.0
2017-May-04 17:30N 59°04' E 010°58'0 0.0
2017-May-04 17:00N 59°04' E 010°58'0 0.0
2017-May-04 16:30N 59°04' E 010°58'0 0.0
2017-May-04 16:00N 59°04' E 010°58'1 2.5
2017-May-04 15:30N 59°02' E 010°58'4 7.2
2017-May-04 15:00N 59°02' E 010°51'4 3.9
2017-May-04 14:00N 59°06' E 010°48'4 7.3
2017-May-04 13:30N 59°07' E 010°41'4 7.8
2017-May-04 13:00N 59°07' E 010°34'3 6.9
2017-May-04 12:30N 59°08' E 010°28'1 1.3
2017-May-04 12:00N 59°09' E 010°28'1 1.3
2017-May-04 11:30N 59°09' E 010°29'2 3.7
2017-May-04 11:00N 59°09' E 010°32'3 6.5
2017-May-04 10:30N 59°12' E 010°32'1 1.7
2017-May-04 10:00N 59°13' E 010°32'0 0.0
2017-May-04 09:30N 59°13' E 010°32'0 0.0
2017-May-04 09:00N 59°13' E 010°32'0 0.0
2017-May-04 08:30N 59°13' E 010°32'0 0.0
2017-May-04 08:00N 59°13' E 010°32'0 0.0
2017-May-04 07:30N 59°13' E 010°32'0 0.0
2017-May-04 07:00N 59°13' E 010°32'0 0.0
2017-May-04 06:30N 59°13' E 010°32'0 0.0
2017-May-04 06:00N 59°13' E 010°32'0 0.0
2017-May-04 05:30N 59°13' E 010°32'0 0.0
2017-May-04 05:00N 59°13' E 010°32'0 0.0
2017-May-04 04:30N 59°13' E 010°32'0 0.0
2017-May-04 04:00N 59°13' E 010°32'0 0.0
2017-May-04 03:30N 59°13' E 010°32'0 0.0
2017-May-04 03:00N 59°13' E 010°32'0 0.0
2017-May-04 02:30N 59°13' E 010°32'0 0.0
2017-May-04 02:00N 59°13' E 010°32'0 0.0
2017-May-04 01:30N 59°13' E 010°32'0 0.0
2017-May-04 01:00N 59°13' E 010°32'0 0.0
2017-May-04 00:30N 59°13' E 010°32'0 0.0
2017-May-04 00:00N 59°13' E 010°32'0 0.0
2017-May-03 23:30N 59°13' E 010°32'0 0.0
2017-May-03 23:00N 59°13' E 010°32'0 0.0
2017-May-03 22:30N 59°13' E 010°32'0 0.0
2017-May-03 22:00N 59°13' E 010°32'0 0.0
2017-May-03 21:30N 59°13' E 010°32'0 0.0
2017-May-03 21:00N 59°13' E 010°32'0 0.0
2017-May-03 20:30N 59°13' E 010°32'0 0.0
2017-May-03 20:00N 59°13' E 010°32'0 0.0
2017-May-03 19:30N 59°13' E 010°32'0 0.0
2017-May-03 19:00N 59°13' E 010°32'0 0.0
2017-May-03 18:30N 59°13' E 010°32'0 0.0
2017-May-03 18:00N 59°13' E 010°32'0 0.0
2017-May-03 17:30N 59°13' E 010°32'0 0.0
2017-May-03 17:00N 59°13' E 010°32'0 0.0
2017-May-03 16:30N 59°13' E 010°32'0 0.0
2017-May-03 16:00N 59°13' E 010°32'0 0.0
2017-May-03 15:30N 59°13' E 010°32'0 0.0
2017-May-03 15:00N 59°13' E 010°32'0 0.0
2017-May-03 14:00N 59°13' E 010°32'0 0.0
2017-May-03 13:30N 59°13' E 010°32'0 0.0
2017-May-03 13:00N 59°13' E 010°32'0 0.0
2017-May-03 12:30N 59°13' E 010°32'0 0.0
2017-May-03 12:00N 59°13' E 010°32'0 0.0
2017-May-03 11:30N 59°13' E 010°32'0 0.0
2017-May-03 11:00N 59°13' E 010°32'0 0.0
2017-May-03 10:30N 59°13' E 010°32'0 0.0
2017-May-03 10:00N 59°13' E 010°32'0 0.0
2017-May-03 09:30N 59°13' E 010°32'0 0.0
2017-May-03 09:00N 59°13' E 010°32'0 0.0
2017-May-03 08:30N 59°13' E 010°32'0 0.0
2017-May-03 08:00N 59°13' E 010°32'0 0.0
2017-May-03 07:30N 59°13' E 010°32'0 0.0
2017-May-03 07:00N 59°13' E 010°32'0 0.0
2017-May-03 06:30N 59°13' E 010°32'0 0.0
2017-May-03 06:00N 59°13' E 010°32'0 0.0
2017-May-03 05:30N 59°13' E 010°32'0 0.0
2017-May-03 05:00N 59°13' E 010°32'0 0.0
2017-May-03 04:30N 59°13' E 010°32'0 0.0
2017-May-03 04:00N 59°13' E 010°32'0 0.0
2017-May-03 03:30N 59°13' E 010°32'0 0.0
2017-May-03 03:00N 59°13' E 010°32'0 0.0
2017-May-03 02:30N 59°13' E 010°32'0 0.0
2017-May-03 02:00N 59°13' E 010°32'0 0.0
2017-May-03 01:30N 59°13' E 010°32'0 0.0
2017-May-03 01:00N 59°13' E 010°32'0 0.0
2017-May-03 00:30N 59°13' E 010°32'0 0.0
2017-May-03 00:00N 59°13' E 010°32'0 0.0
2017-May-02 23:30N 59°13' E 010°32'0 0.0
2017-May-02 23:00N 59°13' E 010°32'0 0.0
2017-May-02 22:30N 59°13' E 010°32'0 0.0
2017-May-02 22:00N 59°13' E 010°32'0 0.0
2017-May-02 21:30N 59°13' E 010°32'0 0.0
2017-May-02 21:00N 59°13' E 010°32'0 0.0
2017-May-02 20:30N 59°13' E 010°32'0 0.0
2017-May-02 20:00N 59°13' E 010°32'0 0.0
2017-May-02 19:30N 59°13' E 010°32'0 0.0
2017-May-02 19:00N 59°13' E 010°32'0 0.0
2017-May-02 18:30N 59°13' E 010°32'0 0.0
2017-May-02 18:00N 59°13' E 010°32'0 0.0
2017-May-02 17:30N 59°13' E 010°32'0 0.0
2017-May-02 17:00N 59°13' E 010°32'0 0.0
2017-May-02 16:30N 59°13' E 010°32'0 0.0
2017-May-02 16:00N 59°13' E 010°32'0 0.0
2017-May-02 15:30N 59°13' E 010°32'0 0.0
2017-May-02 15:00N 59°13' E 010°32'  

Dump ship's entire track history